createdAt,value
2023-04-10T00:00:20.569Z,99.41
2023-04-10T00:02:47.496Z,99.08
2023-04-10T00:05:14.264Z,98.70
2023-04-10T00:07:41.107Z,98.69
2023-04-10T00:10:07.840Z,98.28
2023-04-10T00:12:36.003Z,98.12
2023-04-10T00:15:02.697Z,97.83
2023-04-10T00:17:29.506Z,98.02
2023-04-10T00:19:56.333Z,97.71
2023-04-10T00:22:22.910Z,98.11
2023-04-10T00:24:49.427Z,98.39
2023-04-10T00:27:16.091Z,98.55
2023-04-10T00:29:42.637Z,98.93
2023-04-10T00:32:09.248Z,98.74
2023-04-10T00:34:36.032Z,99.08
2023-04-10T00:37:02.607Z,98.98
2023-04-10T00:39:29.309Z,98.97
2023-04-10T00:41:57.631Z,98.79
2023-04-10T00:44:24.255Z,99.02
2023-04-10T00:46:51.457Z,98.84
2023-04-10T00:49:18.568Z,98.95
2023-04-10T00:51:45.305Z,99.32
2023-04-10T00:54:12.151Z,99.03
2023-04-10T00:56:38.749Z,98.96
2023-04-10T00:59:07.150Z,99.05
2023-04-10T01:01:34.203Z,98.66
2023-04-10T01:04:01.105Z,98.53
2023-04-10T01:06:41.992Z,98.36
2023-04-10T01:09:12.580Z,98.56
2023-04-10T01:11:48.397Z,98.41
2023-04-10T01:14:21.213Z,98.00
2023-04-10T01:16:58.445Z,98.08
2023-04-10T01:19:28.202Z,98.55
2023-04-10T01:21:56.197Z,98.32
2023-04-10T01:24:31.945Z,98.41
2023-04-10T01:27:04.726Z,98.75
2023-04-10T01:29:32.626Z,98.91
2023-04-10T01:32:08.462Z,99.31
2023-04-10T01:34:46.632Z,99.08
2023-04-10T01:37:24.682Z,98.85
2023-04-10T01:39:54.158Z,98.57
2023-04-10T01:42:21.908Z,98.95
2023-04-10T01:44:49.485Z,98.73
2023-04-10T01:47:18.033Z,98.85
2023-04-10T01:49:46.688Z,99.20
2023-04-10T01:52:14.208Z,99.08
2023-04-10T01:54:48.521Z,99.35
2023-04-10T01:57:21.480Z,99.44
2023-04-10T01:59:53.435Z,99.15
2023-04-10T02:02:20.123Z,99.63
2023-04-10T02:04:51.575Z,99.64
2023-04-10T02:07:21.660Z,99.45
2023-04-10T02:10:21.465Z,99.37
2023-04-10T02:13:01.357Z,99.93
2023-04-10T02:15:30.939Z,99.96
2023-04-10T02:17:58.808Z,99.98
2023-04-10T02:20:25.817Z,100.00
2023-04-10T02:22:53.539Z,100.00
2023-04-10T02:25:20.886Z,100.00
2023-04-10T02:27:48.806Z,100.00
2023-04-10T02:30:15.424Z,100.00
2023-04-10T02:32:44.154Z,100.00
2023-04-10T02:35:10.866Z,99.94
2023-04-10T02:37:37.677Z,100.00
2023-04-10T02:40:04.466Z,100.00
2023-04-10T02:42:39.923Z,100.00
2023-04-10T02:45:06.950Z,100.00
2023-04-10T02:47:38.583Z,100.00
2023-04-10T02:50:05.439Z,100.00
2023-04-10T02:52:35.941Z,100.00
2023-04-10T02:55:02.970Z,100.00
2023-04-10T02:57:34.921Z,100.00
2023-04-10T03:00:01.542Z,100.00
2023-04-10T03:02:33.205Z,100.00
2023-04-10T03:05:08.913Z,100.00
2023-04-10T03:07:35.801Z,100.00
2023-04-10T03:10:03.503Z,100.00
2023-04-10T03:12:30.043Z,100.00
2023-04-10T03:14:56.709Z,100.00
2023-04-10T03:17:23.297Z,100.00
2023-04-10T03:19:50.624Z,100.00
2023-04-10T03:22:17.301Z,100.00
2023-04-10T03:24:44.609Z,100.00
2023-04-10T03:27:11.970Z,100.00
2023-04-10T03:29:38.688Z,100.00
2023-04-10T03:32:06.175Z,100.00
2023-04-10T03:34:34.101Z,100.00
2023-04-10T03:37:00.684Z,100.00
2023-04-10T03:39:27.263Z,100.00
2023-04-10T03:41:53.851Z,100.00
2023-04-10T03:44:23.509Z,100.00
2023-04-10T03:46:50.976Z,100.00
2023-04-10T03:49:17.999Z,100.00
2023-04-10T03:51:44.805Z,100.00
2023-04-10T03:54:11.451Z,100.00
2023-04-10T03:56:38.148Z,100.00
2023-04-10T03:59:04.869Z,100.00
2023-04-10T04:01:39.579Z,100.00
2023-04-10T04:04:09.845Z,100.00
2023-04-10T04:07:09.109Z,100.00
2023-04-10T04:10:08.012Z,100.00
2023-04-10T04:12:47.903Z,100.00
2023-04-10T04:15:38.909Z,100.00
2023-04-10T04:18:26.029Z,100.00
2023-04-10T04:21:08.674Z,100.00
2023-04-10T04:23:58.762Z,100.00
2023-04-10T04:26:46.144Z,100.00
2023-04-10T04:29:31.788Z,100.00
2023-04-10T04:32:13.696Z,100.00
2023-04-10T04:34:59.157Z,100.00
2023-04-10T04:38:01.655Z,100.00
2023-04-10T04:40:46.699Z,100.00
2023-04-10T04:43:36.031Z,100.00
2023-04-10T04:46:21.248Z,100.00
2023-04-10T04:48:59.605Z,100.00
2023-04-10T04:51:52.109Z,100.00
2023-04-10T04:54:38.328Z,95.57
2023-04-10T04:57:15.002Z,91.11
2023-04-10T05:00:05.650Z,88.20
2023-04-10T05:02:50.952Z,84.31
2023-04-10T05:05:32.505Z,81.20
2023-04-10T05:08:11.340Z,80.95
2023-04-10T05:10:47.101Z,79.14
2023-04-10T05:13:22.993Z,76.77
2023-04-10T05:16:12.621Z,73.24
2023-04-10T05:18:54.339Z,71.26
2023-04-10T05:21:39.855Z,69.32
2023-04-10T05:24:24.895Z,68.00
2023-04-10T05:27:17.648Z,69.13
2023-04-10T05:30:19.450Z,68.75
2023-04-10T05:33:04.276Z,67.79
2023-04-10T05:36:06.112Z,68.41
2023-04-10T05:38:53.157Z,66.68
2023-04-10T05:41:37.907Z,65.01
2023-04-10T05:44:18.518Z,63.00
2023-04-10T05:46:56.881Z,62.53
2023-04-10T05:49:42.063Z,62.16
2023-04-10T05:52:31.600Z,61.05
2023-04-10T05:55:13.381Z,62.65
2023-04-10T05:58:12.043Z,62.40
2023-04-10T06:01:09.908Z,61.31
2023-04-10T06:03:46.652Z,59.27
2023-04-10T06:06:15.119Z,59.84
2023-04-10T06:08:41.812Z,60.99
2023-04-10T06:11:08.538Z,57.50
2023-04-10T06:13:35.151Z,57.11
2023-04-10T06:16:02.693Z,56.35
2023-04-10T06:18:30.607Z,55.40
2023-04-10T06:21:00.298Z,55.18
2023-04-10T06:23:27.825Z,58.36
2023-04-10T06:25:55.138Z,58.25
2023-04-10T06:28:21.982Z,58.25
2023-04-10T06:30:52.105Z,55.59
2023-04-10T06:33:18.711Z,54.69
2023-04-10T06:35:46.164Z,57.29
2023-04-10T06:38:12.829Z,56.61
2023-04-10T06:40:40.803Z,57.54
2023-04-10T06:43:07.355Z,56.94
2023-04-10T06:45:37.783Z,56.58
2023-04-10T06:48:04.610Z,57.58
2023-04-10T06:50:33.256Z,58.51
2023-04-10T06:53:00.369Z,60.71
2023-04-10T06:55:27.133Z,60.09
2023-04-10T06:57:53.780Z,59.91
2023-04-10T07:00:20.895Z,60.81
2023-04-10T07:02:47.514Z,58.32
2023-04-10T07:05:20.179Z,56.78
2023-04-10T07:07:47.643Z,58.52
2023-04-10T07:10:14.293Z,56.01
2023-04-10T07:12:41.015Z,56.39
2023-04-10T07:15:08.246Z,59.15
2023-04-10T07:17:34.918Z,58.41
2023-04-10T07:20:01.713Z,59.70
2023-04-10T07:22:28.435Z,61.29
2023-04-10T07:24:55.009Z,63.67
2023-04-10T07:27:21.749Z,64.90
2023-04-10T07:29:48.363Z,65.12
2023-04-10T07:32:15.043Z,66.65
2023-04-10T07:34:42.280Z,65.88
2023-04-10T07:37:09.578Z,64.09
2023-04-10T07:39:38.817Z,65.72
2023-04-10T07:42:06.002Z,65.67
2023-04-10T07:44:32.747Z,65.70
2023-04-10T07:46:59.417Z,65.88
2023-04-10T07:49:28.781Z,65.85
2023-04-10T07:51:55.551Z,65.06
2023-04-10T07:54:22.303Z,61.37
2023-04-10T07:56:48.854Z,60.79
2023-04-10T07:59:15.413Z,59.54
2023-04-10T08:01:42.021Z,58.73
2023-04-10T08:04:09.268Z,58.01
2023-04-10T08:06:36.385Z,58.65
2023-04-10T08:09:03.104Z,61.97
2023-04-10T08:11:35.270Z,61.05
2023-04-10T08:14:03.980Z,60.07
2023-04-10T08:16:31.360Z,62.25
2023-04-10T08:18:58.569Z,60.69
2023-04-10T08:21:28.984Z,60.77
2023-04-10T08:23:56.857Z,63.29
2023-04-10T08:26:23.776Z,63.47
2023-04-10T08:28:51.207Z,61.97
2023-04-10T08:31:18.357Z,60.87
2023-04-10T08:33:45.299Z,60.71
2023-04-10T08:36:12.866Z,59.46
2023-04-10T08:38:39.775Z,58.90
2023-04-10T08:41:06.641Z,60.89
2023-04-10T08:43:34.654Z,59.60
2023-04-10T08:46:01.819Z,59.85
2023-04-10T08:48:35.159Z,59.46
2023-04-10T08:51:04.379Z,61.08
2023-04-10T08:53:32.073Z,60.72
2023-04-10T08:56:01.283Z,58.99
2023-04-10T08:58:28.261Z,58.65
2023-04-10T09:00:54.940Z,56.51
2023-04-10T09:03:21.819Z,58.33
2023-04-10T09:05:51.464Z,57.54
2023-04-10T09:08:18.074Z,57.44
2023-04-10T09:10:44.615Z,58.43
2023-04-10T09:13:11.193Z,56.14
2023-04-10T09:16:00.619Z,57.02
2023-04-10T09:18:43.871Z,58.21
2023-04-10T09:21:11.562Z,58.14
2023-04-10T09:23:38.491Z,57.29
2023-04-10T09:26:22.356Z,56.47
2023-04-10T09:29:01.486Z,57.43
2023-04-10T09:31:30.624Z,55.85
2023-04-10T09:34:21.621Z,55.95
2023-04-10T09:36:56.212Z,55.95
2023-04-10T09:39:32.641Z,55.40
2023-04-10T09:41:59.393Z,55.02
2023-04-10T09:44:31.204Z,55.35
2023-04-10T09:47:15.470Z,54.24
2023-04-10T09:49:46.449Z,56.03
2023-04-10T09:52:20.447Z,54.22
2023-04-10T09:54:47.074Z,56.10
2023-04-10T09:57:16.055Z,56.23
2023-04-10T09:59:44.864Z,56.78
2023-04-10T10:02:13.437Z,56.45
2023-04-10T10:04:41.196Z,57.70
2023-04-10T10:07:07.940Z,57.01
2023-04-10T10:09:35.432Z,56.70
2023-04-10T10:12:03.290Z,56.65
2023-04-10T10:14:31.484Z,57.97
2023-04-10T10:17:01.910Z,57.15
2023-04-10T10:19:33.325Z,56.52
2023-04-10T10:22:01.235Z,56.36
2023-04-10T10:24:28.249Z,56.49
2023-04-10T10:26:55.789Z,54.67
2023-04-10T10:29:23.769Z,51.07
2023-04-10T10:31:50.515Z,51.01
2023-04-10T10:34:17.253Z,51.51
2023-04-10T10:36:43.977Z,51.67
2023-04-10T10:39:10.739Z,51.28
2023-04-10T10:41:49.691Z,51.76
2023-04-10T10:44:22.144Z,52.28
2023-04-10T10:46:58.706Z,52.13
2023-04-10T10:49:45.182Z,51.24
2023-04-10T10:52:11.869Z,51.15
2023-04-10T10:54:47.127Z,52.39
2023-04-10T10:57:39.336Z,51.98
2023-04-10T11:00:06.786Z,52.34
2023-04-10T11:02:34.165Z,51.93
2023-04-10T11:05:00.909Z,51.38
2023-04-10T11:07:47.480Z,52.34
2023-04-10T11:10:14.062Z,52.12
2023-04-10T11:13:00.772Z,51.07
2023-04-10T11:15:27.428Z,51.90
2023-04-10T11:17:55.691Z,50.96
2023-04-10T11:20:25.826Z,49.94
2023-04-10T11:23:12.874Z,50.12
2023-04-10T11:25:46.042Z,50.03
2023-04-10T11:28:33.007Z,51.07
2023-04-10T11:31:18.466Z,49.16
2023-04-10T11:33:46.686Z,49.38
2023-04-10T11:36:15.706Z,47.63
2023-04-10T11:38:53.633Z,47.30
2023-04-10T11:41:20.579Z,47.41
2023-04-10T11:43:51.557Z,47.21
2023-04-10T11:46:18.507Z,47.82
2023-04-10T11:48:45.171Z,46.98
2023-04-10T11:51:13.011Z,49.00
2023-04-10T11:53:40.293Z,48.26
2023-04-10T11:56:15.116Z,48.27
2023-04-10T11:58:41.780Z,48.00
2023-04-10T12:01:14.310Z,46.90
2023-04-10T12:03:42.375Z,48.42
2023-04-10T12:06:13.078Z,48.44
2023-04-10T12:08:41.368Z,45.77
2023-04-10T12:11:09.587Z,46.56
2023-04-10T12:13:37.020Z,47.89
2023-04-10T12:16:04.953Z,48.27
2023-04-10T12:18:32.174Z,46.02
2023-04-10T12:20:59.518Z,46.06
2023-04-10T12:23:26.728Z,46.79
2023-04-10T12:25:53.915Z,45.89
2023-04-10T12:28:21.529Z,47.21
2023-04-10T12:30:55.197Z,45.80
2023-04-10T12:33:25.411Z,46.19
2023-04-10T12:35:52.245Z,47.88
2023-04-10T12:38:37.699Z,46.31
2023-04-10T12:41:04.556Z,45.29
2023-04-10T12:43:35.291Z,46.15
2023-04-10T12:46:02.115Z,46.97
2023-04-10T12:48:28.938Z,45.49
2023-04-10T12:50:55.652Z,46.20
2023-04-10T12:53:25.048Z,45.10
2023-04-10T12:56:05.172Z,45.03
2023-04-10T12:58:32.420Z,46.44
2023-04-10T13:01:02.611Z,47.47
2023-04-10T13:03:29.718Z,48.13
2023-04-10T13:05:56.641Z,46.66
2023-04-10T13:08:23.320Z,47.24
2023-04-10T13:10:50.001Z,45.40
2023-04-10T13:13:17.121Z,45.43
2023-04-10T13:15:43.955Z,44.53
2023-04-10T13:18:11.070Z,44.29
2023-04-10T13:20:38.977Z,44.25
2023-04-10T13:23:05.940Z,43.52
2023-04-10T13:25:37.063Z,43.50
2023-04-10T13:28:10.014Z,46.91
2023-04-10T13:30:37.441Z,43.96
2023-04-10T13:33:04.331Z,43.28
2023-04-10T13:35:31.322Z,42.94
2023-04-10T13:37:58.560Z,43.90
2023-04-10T13:40:25.159Z,43.35
2023-04-10T13:42:51.686Z,43.27
2023-04-10T13:45:18.375Z,42.64
2023-04-10T13:47:45.029Z,42.46
2023-04-10T13:50:11.772Z,43.90
2023-04-10T13:52:38.494Z,43.38
2023-04-10T13:55:05.624Z,41.17
2023-04-10T13:57:32.259Z,42.91
2023-04-10T13:59:58.775Z,44.09
2023-04-10T14:02:25.492Z,42.96
2023-04-10T14:04:52.271Z,43.90
2023-04-10T14:07:19.077Z,42.82
2023-04-10T14:09:47.097Z,43.18
2023-04-10T14:12:16.397Z,42.99
2023-04-10T14:14:43.534Z,42.80
2023-04-10T14:17:10.460Z,43.61
2023-04-10T14:19:37.514Z,44.50
2023-04-10T14:22:04.062Z,44.14
2023-04-10T14:24:30.652Z,43.06
2023-04-10T14:27:00.739Z,42.98
2023-04-10T14:29:36.369Z,43.27
2023-04-10T14:32:06.069Z,42.39
2023-04-10T14:34:32.716Z,42.03
2023-04-10T14:36:59.718Z,44.15
2023-04-10T14:39:26.400Z,44.57
2023-04-10T14:41:52.986Z,43.41
2023-04-10T14:44:19.662Z,43.42
2023-04-10T14:46:46.361Z,44.45
2023-04-10T14:49:13.486Z,43.96
2023-04-10T14:51:42.696Z,44.02
2023-04-10T14:54:09.369Z,44.06
2023-04-10T14:56:36.050Z,43.85
2023-04-10T14:59:02.659Z,43.83
2023-04-10T15:01:29.227Z,42.88
2023-04-10T15:03:56.053Z,43.33
2023-04-10T15:06:22.851Z,43.27
2023-04-10T15:08:49.404Z,43.76
2023-04-10T15:11:16.023Z,43.59
2023-04-10T15:13:42.560Z,43.38
2023-04-10T15:16:09.162Z,44.13
2023-04-10T15:18:35.921Z,44.02
2023-04-10T15:21:02.530Z,44.90
2023-04-10T15:23:29.203Z,45.47
2023-04-10T15:25:55.999Z,44.93
2023-04-10T15:28:22.563Z,45.03
2023-04-10T15:30:50.200Z,44.81
2023-04-10T15:33:17.232Z,45.25
2023-04-10T15:35:47.747Z,45.46
2023-04-10T15:38:14.367Z,45.33
2023-04-10T15:40:40.949Z,46.30
2023-04-10T15:43:07.515Z,46.78
2023-04-10T15:45:35.973Z,45.62
2023-04-10T15:48:04.558Z,46.26
2023-04-10T15:50:31.428Z,46.37
2023-04-10T15:52:57.960Z,45.73
2023-04-10T15:55:24.713Z,46.08
2023-04-10T15:57:51.304Z,46.11
2023-04-10T16:00:18.062Z,46.33
2023-04-10T16:02:44.994Z,47.89
2023-04-10T16:05:12.190Z,46.40
2023-04-10T16:07:40.637Z,47.31
2023-04-10T16:10:09.225Z,46.26
2023-04-10T16:12:35.995Z,46.18
2023-04-10T16:15:04.434Z,46.31
2023-04-10T16:17:31.123Z,45.81
2023-04-10T16:19:57.827Z,45.86
2023-04-10T16:22:24.383Z,46.27
2023-04-10T16:24:54.470Z,46.39
2023-04-10T16:27:21.032Z,46.05
2023-04-10T16:29:50.062Z,46.21
2023-04-10T16:32:20.642Z,46.02
2023-04-10T16:34:47.336Z,47.03
2023-04-10T16:37:13.937Z,46.33
2023-04-10T16:39:40.445Z,46.50
2023-04-10T16:42:07.191Z,46.37
2023-04-10T16:44:33.713Z,46.57
2023-04-10T16:47:00.340Z,46.97
2023-04-10T16:49:26.963Z,47.10
2023-04-10T16:51:53.571Z,47.45
2023-04-10T16:54:20.545Z,47.29
2023-04-10T16:56:47.105Z,47.71
2023-04-10T16:59:13.634Z,47.69
2023-04-10T17:01:40.401Z,48.12
2023-04-10T17:04:08.293Z,48.72
2023-04-10T17:06:35.409Z,49.26
2023-04-10T17:09:01.988Z,49.12
2023-04-10T17:11:28.589Z,50.24
2023-04-10T17:13:55.271Z,49.99
2023-04-10T17:16:21.911Z,50.12
2023-04-10T17:18:48.498Z,49.84
2023-04-10T17:21:15.332Z,50.50
2023-04-10T17:23:42.137Z,50.77
2023-04-10T17:26:12.752Z,50.90
2023-04-10T17:28:39.611Z,50.88
2023-04-10T17:31:06.756Z,50.41
2023-04-10T17:33:33.301Z,50.50
2023-04-10T17:35:59.812Z,50.92
2023-04-10T17:38:26.376Z,50.74
2023-04-10T17:40:52.901Z,52.22
2023-04-10T17:43:19.666Z,52.75
2023-04-10T17:45:46.164Z,53.88
2023-04-10T17:48:12.991Z,54.45
2023-04-10T17:50:39.864Z,55.21
2023-04-10T17:53:06.450Z,55.64
2023-04-10T17:55:37.919Z,56.06
2023-04-10T17:58:04.513Z,56.38
2023-04-10T18:00:31.124Z,56.80
2023-04-10T18:03:01.304Z,56.93
2023-04-10T18:05:28.717Z,56.80
2023-04-10T18:07:57.530Z,56.73
2023-04-10T18:10:24.201Z,56.75
2023-04-10T18:12:50.916Z,56.79
2023-04-10T18:15:17.415Z,57.33
2023-04-10T18:17:44.004Z,56.95
2023-04-10T18:20:10.906Z,57.20
2023-04-10T18:22:37.430Z,57.16
2023-04-10T18:25:05.270Z,57.58
2023-04-10T18:27:34.353Z,57.72
2023-04-10T18:30:00.922Z,57.99
2023-04-10T18:32:27.623Z,58.14
2023-04-10T18:34:54.236Z,58.88
2023-04-10T18:37:20.868Z,58.41
2023-04-10T18:39:47.580Z,58.90
2023-04-10T18:42:14.114Z,58.29
2023-04-10T18:44:40.645Z,58.65
2023-04-10T18:47:07.225Z,58.20
2023-04-10T18:49:33.915Z,58.72
2023-04-10T18:52:00.675Z,59.41
2023-04-10T18:54:27.537Z,59.70
2023-04-10T18:56:54.195Z,59.10
2023-04-10T18:59:20.700Z,59.94
2023-04-10T19:01:47.440Z,61.34
2023-04-10T19:04:14.312Z,61.71
2023-04-10T19:06:42.753Z,60.93
2023-04-10T19:09:09.402Z,61.30
2023-04-10T19:11:35.978Z,60.95
2023-04-10T19:14:02.616Z,60.52
2023-04-10T19:16:29.279Z,61.16
2023-04-10T19:18:56.235Z,60.83
2023-04-10T19:21:23.010Z,60.60
2023-04-10T19:23:49.593Z,60.63
2023-04-10T19:26:16.361Z,61.73
2023-04-10T19:28:42.920Z,62.17
2023-04-10T19:31:09.571Z,61.98
2023-04-10T19:33:36.148Z,61.88
2023-04-10T19:36:02.691Z,61.95
2023-04-10T19:38:29.497Z,62.32
2023-04-10T19:40:56.169Z,62.48
2023-04-10T19:43:22.864Z,63.06
2023-04-10T19:45:49.465Z,63.50
2023-04-10T19:48:16.933Z,64.02
2023-04-10T19:50:43.465Z,64.62
2023-04-10T19:53:15.660Z,64.28
2023-04-10T19:55:44.213Z,64.40
2023-04-10T19:58:24.969Z,64.72
2023-04-10T20:01:03.962Z,65.27
2023-04-10T20:03:31.691Z,65.83
2023-04-10T20:06:05.121Z,65.40
2023-04-10T20:08:31.712Z,66.09
2023-04-10T20:10:58.539Z,66.80
2023-04-10T20:13:25.135Z,67.02
2023-04-10T20:15:51.929Z,67.39
2023-04-10T20:18:18.697Z,67.47
2023-04-10T20:20:45.286Z,67.84
2023-04-10T20:23:12.519Z,67.73
2023-04-10T20:25:39.556Z,67.54
2023-04-10T20:28:06.475Z,67.07
2023-04-10T20:30:33.147Z,67.42
2023-04-10T20:32:59.812Z,66.88
2023-04-10T20:35:26.787Z,68.08
2023-04-10T20:37:53.306Z,68.02
2023-04-10T20:40:20.013Z,68.63
2023-04-10T20:42:46.646Z,69.72
2023-04-10T20:45:13.362Z,70.79
2023-04-10T20:47:40.157Z,71.51
2023-04-10T20:50:07.436Z,71.89
2023-04-10T20:52:34.042Z,72.63
2023-04-10T20:55:00.941Z,73.36
2023-04-10T20:57:27.626Z,73.95
2023-04-10T20:59:54.276Z,72.91
2023-04-10T21:02:20.929Z,72.94
2023-04-10T21:04:47.736Z,72.12
2023-04-10T21:07:14.290Z,72.33
2023-04-10T21:09:40.981Z,70.80
2023-04-10T21:12:07.576Z,71.24
2023-04-10T21:14:35.824Z,70.71
2023-04-10T21:17:02.549Z,71.03
2023-04-10T21:19:29.041Z,70.08
2023-04-10T21:21:56.681Z,70.69
2023-04-10T21:24:23.313Z,70.80
2023-04-10T21:26:49.916Z,71.03
2023-04-10T21:29:16.422Z,71.90
2023-04-10T21:31:43.427Z,72.73
2023-04-10T21:34:10.066Z,72.89
2023-04-10T21:36:36.608Z,73.30
2023-04-10T21:39:03.216Z,74.49
2023-04-10T21:41:29.848Z,75.21
2023-04-10T21:44:00.236Z,74.81
2023-04-10T21:46:26.943Z,75.83
2023-04-10T21:48:53.856Z,76.14
2023-04-10T21:51:20.628Z,76.58
2023-04-10T21:53:47.338Z,76.41
2023-04-10T21:56:13.899Z,77.10
2023-04-10T21:58:40.619Z,77.53
2023-04-10T22:01:11.268Z,77.47
2023-04-10T22:03:37.855Z,77.85
2023-04-10T22:06:04.504Z,78.30
2023-04-10T22:08:31.482Z,78.75
2023-04-10T22:10:58.081Z,78.52
2023-04-10T22:13:30.934Z,79.22
2023-04-10T22:15:58.182Z,79.44
2023-04-10T22:18:24.872Z,79.55
2023-04-10T22:20:51.595Z,80.21
2023-04-10T22:23:18.205Z,80.73
2023-04-10T22:25:44.829Z,80.91
2023-04-10T22:28:11.417Z,81.03
2023-04-10T22:30:37.972Z,81.93
2023-04-10T22:33:04.580Z,81.57
2023-04-10T22:35:31.187Z,82.01
2023-04-10T22:37:57.855Z,82.31
2023-04-10T22:40:25.713Z,82.81
2023-04-10T22:42:52.257Z,84.00
2023-04-10T22:45:18.800Z,83.42
2023-04-10T22:47:45.454Z,83.78
2023-04-10T22:50:12.206Z,85.00
2023-04-10T22:52:38.974Z,84.95
2023-04-10T22:55:06.962Z,86.16
2023-04-10T22:57:33.841Z,86.85
2023-04-10T23:00:00.826Z,87.01
2023-04-10T23:02:27.830Z,87.38
2023-04-10T23:04:54.705Z,88.32
2023-04-10T23:07:21.249Z,89.06
2023-04-10T23:09:47.769Z,89.97
2023-04-10T23:12:14.359Z,91.21
2023-04-10T23:14:40.974Z,91.31
2023-04-10T23:17:07.644Z,91.41
2023-04-10T23:19:34.172Z,91.44
2023-04-10T23:22:00.702Z,91.36
2023-04-10T23:24:27.267Z,90.91
2023-04-10T23:26:53.793Z,91.31
2023-04-10T23:29:20.340Z,91.45
2023-04-10T23:31:46.881Z,91.82
2023-04-10T23:34:13.529Z,91.72
2023-04-10T23:36:40.545Z,91.84
2023-04-10T23:39:07.101Z,89.85
2023-04-10T23:41:33.687Z,89.44
2023-04-10T23:44:00.180Z,89.79
2023-04-10T23:46:26.773Z,90.10
2023-04-10T23:48:56.818Z,90.45
2023-04-10T23:51:23.344Z,90.94
2023-04-10T23:53:49.884Z,91.37
2023-04-10T23:56:16.867Z,92.08
2023-04-10T23:58:43.489Z,91.81
